sensor_id;sensor_type;location;lat;lon;timestamp;P1;durP1;ratioP1;P2;durP2;ratioP2
32838;SDS011;19182;41.820;12.808;2022-10-04T00:06:16;5.15;;;2.20;;
32838;SDS011;19182;41.820;12.808;2022-10-04T00:08:47;9.18;;;2.55;;
32838;SDS011;19182;41.820;12.808;2022-10-04T00:11:29;9.05;;;3.35;;
32838;SDS011;19182;41.820;12.808;2022-10-04T00:14:00;9.35;;;2.50;;
32838;SDS011;19182;41.820;12.808;2022-10-04T00:16:33;11.30;;;2.47;;
32838;SDS011;19182;41.820;12.808;2022-10-04T00:24:24;8.63;;;2.38;;
32838;SDS011;19182;41.820;12.808;2022-10-04T00:29:39;8.25;;;2.28;;
32838;SDS011;19182;41.820;12.808;2022-10-04T00:34:47;4.95;;;2.83;;
32838;SDS011;19182;41.820;12.808;2022-10-04T00:37:16;6.15;;;2.53;;
32838;SDS011;19182;41.820;12.808;2022-10-04T00:39:47;7.30;;;2.80;;
32838;SDS011;19182;41.820;12.808;2022-10-04T00:42:45;7.13;;;3.10;;
32838;SDS011;19182;41.820;12.808;2022-10-04T00:50:17;8.80;;;2.80;;
32838;SDS011;19182;41.820;12.808;2022-10-04T00:52:49;7.38;;;2.65;;
32838;SDS011;19182;41.820;12.808;2022-10-04T00:55:23;8.90;;;3.08;;
32838;SDS011;19182;41.820;12.808;2022-10-04T00:58:06;7.88;;;2.78;;
32838;SDS011;19182;41.820;12.808;2022-10-04T01:00:39;6.35;;;2.95;;
32838;SDS011;19182;41.820;12.808;2022-10-04T01:03:09;7.07;;;2.75;;
32838;SDS011;19182;41.820;12.808;2022-10-04T01:05:41;12.05;;;3.42;;
32838;SDS011;19182;41.820;12.808;2022-10-04T01:08:12;16.02;;;3.00;;
32838;SDS011;19182;41.820;12.808;2022-10-04T01:10:51;12.18;;;3.00;;
32838;SDS011;19182;41.820;12.808;2022-10-04T01:13:39;7.43;;;3.00;;
32838;SDS011;19182;41.820;12.808;2022-10-04T01:16:18;6.75;;;2.80;;
32838;SDS011;19182;41.820;12.808;2022-10-04T01:18:49;10.13;;;3.70;;
32838;SDS011;19182;41.820;12.808;2022-10-04T01:24:14;12.38;;;4.75;;
32838;SDS011;19182;41.820;12.808;2022-10-04T01:26:41;10.68;;;4.50;;
32838;SDS011;19182;41.820;12.808;2022-10-04T01:29:14;11.52;;;4.65;;
32838;SDS011;19182;41.820;12.808;2022-10-04T01:31:44;15.98;;;4.60;;
32838;SDS011;19182;41.820;12.808;2022-10-04T01:34:12;6.53;;;3.90;;
32838;SDS011;19182;41.820;12.808;2022-10-04T01:36:40;12.07;;;3.83;;
32838;SDS011;19182;41.820;12.808;2022-10-04T01:39:06;6.18;;;3.58;;
32838;SDS011;19182;41.820;12.808;2022-10-04T01:41:37;9.27;;;3.67;;
32838;SDS011;19182;41.820;12.808;2022-10-04T01:44:17;13.88;;;3.33;;
32838;SDS011;19182;41.820;12.808;2022-10-04T01:46:48;8.45;;;3.50;;
32838;SDS011;19182;41.820;12.808;2022-10-04T01:49:17;8.18;;;3.35;;
32838;SDS011;19182;41.820;12.808;2022-10-04T01:51:53;9.43;;;3.30;;
32838;SDS011;19182;41.820;12.808;2022-10-04T01:54:37;4.65;;;2.55;;
32838;SDS011;19182;41.820;12.808;2022-10-04T01:57:16;7.97;;;3.03;;
32838;SDS011;19182;41.820;12.808;2022-10-04T02:05:08;9.48;;;3.20;;
32838;SDS011;19182;41.820;12.808;2022-10-04T02:07:37;5.85;;;2.90;;
32838;SDS011;19182;41.820;12.808;2022-10-04T02:10:06;6.82;;;2.97;;
32838;SDS011;19182;41.820;12.808;2022-10-04T02:12:36;9.20;;;3.38;;
32838;SDS011;19182;41.820;12.808;2022-10-04T02:15:07;6.57;;;2.65;;
32838;SDS011;19182;41.820;12.808;2022-10-04T02:17:37;13.10;;;3.72;;
32838;SDS011;19182;41.820;12.808;2022-10-04T02:20:17;9.32;;;3.38;;
32838;SDS011;19182;41.820;12.808;2022-10-04T02:22:45;9.85;;;3.80;;
32838;SDS011;19182;41.820;12.808;2022-10-04T02:25:17;8.82;;;3.45;;
32838;SDS011;19182;41.820;12.808;2022-10-04T02:27:44;5.53;;;3.03;;
32838;SDS011;19182;41.820;12.808;2022-10-04T02:30:11;9.70;;;3.33;;
32838;SDS011;19182;41.820;12.808;2022-10-04T02:32:38;8.73;;;3.25;;
32838;SDS011;19182;41.820;12.808;2022-10-04T02:35:22;11.85;;;3.72;;
32838;SDS011;19182;41.820;12.808;2022-10-04T02:38:15;12.05;;;3.78;;
32838;SDS011;19182;41.820;12.808;2022-10-04T02:41:00;9.38;;;3.60;;
32838;SDS011;19182;41.820;12.808;2022-10-04T02:43:29;8.45;;;3.38;;
32838;SDS011;19182;41.820;12.808;2022-10-04T02:46:32;11.15;;;3.20;;
32838;SDS011;19182;41.820;12.808;2022-10-04T02:51:51;10.13;;;3.22;;
32838;SDS011;19182;41.820;12.808;2022-10-04T02:54:27;9.77;;;3.50;;
32838;SDS011;19182;41.820;12.808;2022-10-04T02:56:56;12.00;;;3.55;;
32838;SDS011;19182;41.820;12.808;2022-10-04T02:59:23;10.02;;;3.33;;
32838;SDS011;19182;41.820;12.808;2022-10-04T03:01:53;10.88;;;2.83;;
32838;SDS011;19182;41.820;12.808;2022-10-04T03:04:33;8.27;;;3.65;;
32838;SDS011;19182;41.820;12.808;2022-10-04T03:07:05;10.85;;;3.40;;
32838;SDS011;19182;41.820;12.808;2022-10-04T03:09:33;12.27;;;3.97;;
32838;SDS011;19182;41.820;12.808;2022-10-04T03:12:02;8.02;;;3.38;;
32838;SDS011;19182;41.820;12.808;2022-10-04T03:14:29;8.38;;;3.40;;
32838;SDS011;19182;41.820;12.808;2022-10-04T03:16:59;9.60;;;2.80;;
32838;SDS011;19182;41.820;12.808;2022-10-04T03:19:28;10.68;;;3.40;;
32838;SDS011;19182;41.820;12.808;2022-10-04T03:21:56;8.60;;;3.45;;
32838;SDS011;19182;41.820;12.808;2022-10-04T03:24:30;9.13;;;3.33;;
32838;SDS011;19182;41.820;12.808;2022-10-04T03:27:21;8.15;;;3.53;;
32838;SDS011;19182;41.820;12.808;2022-10-04T03:29:55;10.43;;;3.53;;
32838;SDS011;19182;41.820;12.808;2022-10-04T03:32:23;6.30;;;3.28;;
32838;SDS011;19182;41.820;12.808;2022-10-04T03:34:59;15.27;;;4.25;;
32838;SDS011;19182;41.820;12.808;2022-10-04T03:37:30;10.15;;;3.60;;
32838;SDS011;19182;41.820;12.808;2022-10-04T03:40:00;9.00;;;3.38;;
32838;SDS011;19182;41.820;12.808;2022-10-04T03:42:27;11.70;;;3.63;;
32838;SDS011;19182;41.820;12.808;2022-10-04T03:45:02;11.30;;;3.73;;
32838;SDS011;19182;41.820;12.808;2022-10-04T03:47:31;7.00;;;3.20;;
32838;SDS011;19182;41.820;12.808;2022-10-04T03:50:02;6.43;;;3.40;;
32838;SDS011;19182;41.820;12.808;2022-10-04T03:52:39;9.45;;;3.50;;
32838;SDS011;19182;41.820;12.808;2022-10-04T03:55:33;9.57;;;4.32;;
32838;SDS011;19182;41.820;12.808;2022-10-04T03:58:04;15.00;;;3.53;;
32838;SDS011;19182;41.820;12.808;2022-10-04T04:00:31;14.10;;;3.75;;
32838;SDS011;19182;41.820;12.808;2022-10-04T04:03:02;17.80;;;5.00;;
32838;SDS011;19182;41.820;12.808;2022-10-04T04:05:37;11.55;;;4.40;;
32838;SDS011;19182;41.820;12.808;2022-10-04T04:08:29;8.73;;;3.95;;
32838;SDS011;19182;41.820;12.808;2022-10-04T04:10:58;11.85;;;3.72;;
32838;SDS011;19182;41.820;12.808;2022-10-04T04:16:11;9.55;;;3.50;;
32838;SDS011;19182;41.820;12.808;2022-10-04T04:18:39;5.05;;;2.95;;
32838;SDS011;19182;41.820;12.808;2022-10-04T04:21:08;9.60;;;3.75;;
32838;SDS011;19182;41.820;12.808;2022-10-04T04:23:42;6.22;;;2.90;;
32838;SDS011;19182;41.820;12.808;2022-10-04T04:28:44;10.43;;;4.22;;
32838;SDS011;19182;41.820;12.808;2022-10-04T04:33:56;9.90;;;4.68;;
32838;SDS011;19182;41.820;12.808;2022-10-04T04:36:40;9.80;;;3.70;;
32838;SDS011;19182;41.820;12.808;2022-10-04T04:41:51;8.20;;;4.45;;
32838;SDS011;19182;41.820;12.808;2022-10-04T04:44:17;10.10;;;4.63;;
32838;SDS011;19182;41.820;12.808;2022-10-04T04:46:51;5.82;;;3.80;;
32838;SDS011;19182;41.820;12.808;2022-10-04T04:49:24;11.13;;;4.85;;
32838;SDS011;19182;41.820;12.808;2022-10-04T04:51:53;6.63;;;4.18;;
32838;SDS011;19182;41.820;12.808;2022-10-04T04:54:23;10.05;;;3.92;;
32838;SDS011;19182;41.820;12.808;2022-10-04T04:56:51;11.40;;;4.30;;
32838;SDS011;19182;41.820;12.808;2022-10-04T04:59:19;8.27;;;3.72;;
32838;SDS011;19182;41.820;12.808;2022-10-04T05:01:48;9.93;;;4.00;;
32838;SDS011;19182;41.820;12.808;2022-10-04T05:04:15;9.98;;;3.95;;
32838;SDS011;19182;41.820;12.808;2022-10-04T05:06:44;7.30;;;3.50;;
32838;SDS011;19182;41.820;12.808;2022-10-04T05:09:28;7.90;;;3.67;;
32838;SDS011;19182;41.820;12.808;2022-10-04T05:11:56;8.23;;;3.75;;
32838;SDS011;19182;41.820;12.808;2022-10-04T05:14:27;12.95;;;3.80;;
32838;SDS011;19182;41.820;12.808;2022-10-04T05:16:55;10.15;;;4.20;;
32838;SDS011;19182;41.820;12.808;2022-10-04T05:19:31;11.15;;;4.00;;
32838;SDS011;19182;41.820;12.808;2022-10-04T05:22:01;8.05;;;3.88;;
32838;SDS011;19182;41.820;12.808;2022-10-04T05:24:44;8.02;;;3.30;;
32838;SDS011;19182;41.820;12.808;2022-10-04T05:29:58;10.32;;;3.40;;
32838;SDS011;19182;41.820;12.808;2022-10-04T05:35:54;8.27;;;3.33;;
32838;SDS011;19182;41.820;12.808;2022-10-04T05:38:34;8.27;;;3.10;;
32838;SDS011;19182;41.820;12.808;2022-10-04T05:43:50;7.65;;;2.80;;
32838;SDS011;19182;41.820;12.808;2022-10-04T05:48:43;10.98;;;3.10;;
32838;SDS011;19182;41.820;12.808;2022-10-04T05:51:11;9.93;;;2.83;;
32838;SDS011;19182;41.820;12.808;2022-10-04T05:53:44;15.60;;;3.55;;
32838;SDS011;19182;41.820;12.808;2022-10-04T05:56:22;5.90;;;2.45;;
32838;SDS011;19182;41.820;12.808;2022-10-04T06:08:11;4.47;;;1.98;;
32838;SDS011;19182;41.820;12.808;2022-10-04T06:15:55;5.18;;;1.50;;
32838;SDS011;19182;41.820;12.808;2022-10-04T06:23:32;4.65;;;1.70;;
32838;SDS011;19182;41.820;12.808;2022-10-04T06:26:06;4.32;;;1.45;;
32838;SDS011;19182;41.820;12.808;2022-10-04T06:28:42;5.30;;;1.80;;
32838;SDS011;19182;41.820;12.808;2022-10-04T06:40:06;7.55;;;1.88;;
32838;SDS011;19182;41.820;12.808;2022-10-04T06:42:50;6.57;;;1.60;;
32838;SDS011;19182;41.820;12.808;2022-10-04T06:57:23;5.93;;;1.35;;
32838;SDS011;19182;41.820;12.808;2022-10-04T07:05:12;2.90;;;1.10;;
32838;SDS011;19182;41.820;12.808;2022-10-04T07:10:55;7.90;;;1.05;;
32838;SDS011;19182;41.820;12.808;2022-10-04T07:18:31;2.45;;;0.80;;
32838;SDS011;19182;41.820;12.808;2022-10-04T07:21:06;2.97;;;0.70;;
32838;SDS011;19182;41.820;12.808;2022-10-04T07:23:38;2.55;;;0.85;;
32838;SDS011;19182;41.820;12.808;2022-10-04T07:26:36;5.28;;;1.00;;
32838;SDS011;19182;41.820;12.808;2022-10-04T07:29:18;2.83;;;1.00;;
32838;SDS011;19182;41.820;12.808;2022-10-04T07:32:05;1.30;;;0.85;;
32838;SDS011;19182;41.820;12.808;2022-10-04T07:34:44;5.90;;;1.13;;
32838;SDS011;19182;41.820;12.808;2022-10-04T07:37:15;5.38;;;1.52;;
32838;SDS011;19182;41.820;12.808;2022-10-04T07:42:30;3.70;;;1.33;;
32838;SDS011;19182;41.820;12.808;2022-10-04T07:45:31;4.95;;;1.27;;
32838;SDS011;19182;41.820;12.808;2022-10-04T07:48:16;6.07;;;1.53;;
32838;SDS011;19182;41.820;12.808;2022-10-04T07:56:26;5.13;;;1.02;;
32838;SDS011;19182;41.820;12.808;2022-10-04T08:01:42;2.42;;;0.65;;
32838;SDS011;19182;41.820;12.808;2022-10-04T08:12:01;3.15;;;1.23;;
32838;SDS011;19182;41.820;12.808;2022-10-04T08:17:18;3.85;;;1.35;;
32838;SDS011;19182;41.820;12.808;2022-10-04T08:28:24;3.47;;;1.42;;
32838;SDS011;19182;41.820;12.808;2022-10-04T08:46:07;3.28;;;1.27;;
32838;SDS011;19182;41.820;12.808;2022-10-04T09:00:49;5.35;;;1.17;;
32838;SDS011;19182;41.820;12.808;2022-10-04T09:20:58;6.25;;;1.60;;
32838;SDS011;19182;41.820;12.808;2022-10-04T09:29:40;6.90;;;1.63;;
32838;SDS011;19182;41.820;12.808;2022-10-04T09:45:22;8.13;;;1.77;;
32838;SDS011;19182;41.820;12.808;2022-10-04T09:48:29;7.75;;;1.67;;
32838;SDS011;19182;41.820;12.808;2022-10-04T10:00:06;8.55;;;1.83;;
32838;SDS011;19182;41.820;12.808;2022-10-04T10:10:50;4.10;;;1.40;;
32838;SDS011;19182;41.820;12.808;2022-10-04T10:30:21;5.00;;;1.45;;
32838;SDS011;19182;41.820;12.808;2022-10-04T10:52:40;6.72;;;1.90;;
32838;SDS011;19182;41.820;12.808;2022-10-04T11:12:54;8.23;;;1.40;;
32838;SDS011;19182;41.820;12.808;2022-10-04T11:27:00;3.65;;;1.20;;
32838;SDS011;19182;41.820;12.808;2022-10-04T11:35:29;4.90;;;1.27;;
32838;SDS011;19182;41.820;12.808;2022-10-04T11:55:16;11.10;;;1.50;;
32838;SDS011;19182;41.820;12.808;2022-10-04T12:04:30;2.58;;;1.30;;
32838;SDS011;19182;41.820;12.808;2022-10-04T12:10:11;3.42;;;1.20;;
32838;SDS011;19182;41.820;12.808;2022-10-04T12:23:54;2.85;;;1.10;;
32838;SDS011;19182;41.820;12.808;2022-10-04T12:43:51;3.10;;;1.27;;
32838;SDS011;19182;41.820;12.808;2022-10-04T13:00:34;6.38;;;1.20;;
32838;SDS011;19182;41.820;12.808;2022-10-04T13:17:45;3.45;;;0.90;;
32838;SDS011;19182;41.820;12.808;2022-10-04T13:21:15;3.83;;;1.05;;
32838;SDS011;19182;41.820;12.808;2022-10-04T13:32:16;7.00;;;1.80;;
32838;SDS011;19182;41.820;12.808;2022-10-04T13:48:39;6.53;;;1.50;;
32838;SDS011;19182;41.820;12.808;2022-10-04T13:53:54;3.28;;;1.45;;
32838;SDS011;19182;41.820;12.808;2022-10-04T13:56:52;3.65;;;1.40;;
32838;SDS011;19182;41.820;12.808;2022-10-04T14:05:42;4.10;;;1.35;;
32838;SDS011;19182;41.820;12.808;2022-10-04T14:08:55;5.45;;;1.73;;
32838;SDS011;19182;41.820;12.808;2022-10-04T14:14:21;6.00;;;1.80;;
32838;SDS011;19182;41.820;12.808;2022-10-04T14:22:47;7.25;;;1.52;;
32838;SDS011;19182;41.820;12.808;2022-10-04T14:25:38;6.20;;;1.27;;
32838;SDS011;19182;41.820;12.808;2022-10-04T14:39:43;5.55;;;1.70;;
32838;SDS011;19182;41.820;12.808;2022-10-04T14:43:01;7.47;;;1.73;;
32838;SDS011;19182;41.820;12.808;2022-10-04T14:45:43;3.13;;;1.10;;
32838;SDS011;19182;41.820;12.808;2022-10-04T14:48:37;4.60;;;1.92;;
32838;SDS011;19182;41.820;12.808;2022-10-04T14:51:40;5.72;;;1.35;;
32838;SDS011;19182;41.820;12.808;2022-10-04T14:56:59;6.75;;;1.40;;
32838;SDS011;19182;41.820;12.808;2022-10-04T15:07:51;5.43;;;1.65;;
32838;SDS011;19182;41.820;12.808;2022-10-04T15:13:08;6.33;;;1.97;;
32838;SDS011;19182;41.820;12.808;2022-10-04T15:16:02;6.20;;;1.58;;
32838;SDS011;19182;41.820;12.808;2022-10-04T15:22:27;5.88;;;1.40;;
32838;SDS011;19182;41.820;12.808;2022-10-04T15:24:43;3.30;;;1.20;;
32838;SDS011;19182;41.820;12.808;2022-10-04T15:30:10;11.07;;;1.75;;
32838;SDS011;19182;41.820;12.808;2022-10-04T15:38:21;7.20;;;1.13;;
32838;SDS011;19182;41.820;12.808;2022-10-04T15:46:49;2.67;;;1.70;;
32838;SDS011;19182;41.820;12.808;2022-10-04T15:52:48;7.43;;;1.90;;
32838;SDS011;19182;41.820;12.808;2022-10-04T16:06:24;5.88;;;1.30;;
32838;SDS011;19182;41.820;12.808;2022-10-04T16:08:59;2.67;;;1.00;;
32838;SDS011;19182;41.820;12.808;2022-10-04T16:23:20;6.15;;;1.58;;
32838;SDS011;19182;41.820;12.808;2022-10-04T16:25:48;4.45;;;1.02;;
32838;SDS011;19182;41.820;12.808;2022-10-04T16:28:24;4.03;;;0.82;;
32838;SDS011;19182;41.820;12.808;2022-10-04T16:31:18;3.38;;;1.30;;
32838;SDS011;19182;41.820;12.808;2022-10-04T16:36:29;8.75;;;1.10;;
32838;SDS011;19182;41.820;12.808;2022-10-04T16:39:07;4.93;;;1.25;;
32838;SDS011;19182;41.820;12.808;2022-10-04T16:42:03;10.02;;;1.48;;
32838;SDS011;19182;41.820;12.808;2022-10-04T16:44:53;13.02;;;2.13;;
32838;SDS011;19182;41.820;12.808;2022-10-04T16:47:26;6.47;;;1.23;;
32838;SDS011;19182;41.820;12.808;2022-10-04T16:49:55;10.73;;;1.85;;
32838;SDS011;19182;41.820;12.808;2022-10-04T16:52:27;3.92;;;1.45;;
32838;SDS011;19182;41.820;12.808;2022-10-04T16:55:24;5.07;;;1.10;;
32838;SDS011;19182;41.820;12.808;2022-10-04T17:06:48;15.10;;;4.18;;
32838;SDS011;19182;41.820;12.808;2022-10-04T17:09:37;9.98;;;3.30;;
32838;SDS011;19182;41.820;12.808;2022-10-04T17:14:55;12.50;;;2.95;;
32838;SDS011;19182;41.820;12.808;2022-10-04T17:20:11;4.30;;;2.35;;
32838;SDS011;19182;41.820;12.808;2022-10-04T17:27:55;6.60;;;2.70;;
32838;SDS011;19182;41.820;12.808;2022-10-04T17:30:26;8.45;;;2.63;;
32838;SDS011;19182;41.820;12.808;2022-10-04T17:33:20;7.85;;;2.97;;
32838;SDS011;19182;41.820;12.808;2022-10-04T17:46:40;8.18;;;3.05;;
32838;SDS011;19182;41.820;12.808;2022-10-04T17:52:41;8.68;;;3.10;;
32838;SDS011;19182;41.820;12.808;2022-10-04T17:55:45;8.88;;;3.40;;
32838;SDS011;19182;41.820;12.808;2022-10-04T18:01:05;9.32;;;3.00;;
32838;SDS011;19182;41.820;12.808;2022-10-04T18:03:50;10.88;;;3.13;;
32838;SDS011;19182;41.820;12.808;2022-10-04T18:06:33;5.95;;;2.88;;
32838;SDS011;19182;41.820;12.808;2022-10-04T18:09:29;9.05;;;2.80;;
32838;SDS011;19182;41.820;12.808;2022-10-04T18:17:50;7.78;;;2.95;;
32838;SDS011;19182;41.820;12.808;2022-10-04T18:20:56;9.35;;;2.63;;
32838;SDS011;19182;41.820;12.808;2022-10-04T18:23:49;6.60;;;2.58;;
32838;SDS011;19182;41.820;12.808;2022-10-04T18:26:59;7.75;;;2.92;;
32838;SDS011;19182;41.820;12.808;2022-10-04T18:29:39;12.88;;;3.65;;
32838;SDS011;19182;41.820;12.808;2022-10-04T18:34:54;7.60;;;3.03;;
32838;SDS011;19182;41.820;12.808;2022-10-04T18:40:02;10.95;;;3.28;;
32838;SDS011;19182;41.820;12.808;2022-10-04T18:42:52;8.52;;;3.35;;
32838;SDS011;19182;41.820;12.808;2022-10-04T18:45:26;9.15;;;3.33;;
32838;SDS011;19182;41.820;12.808;2022-10-04T18:48:13;10.20;;;3.90;;
32838;SDS011;19182;41.820;12.808;2022-10-04T18:50:40;10.65;;;3.80;;
32838;SDS011;19182;41.820;12.808;2022-10-04T18:53:21;10.05;;;3.75;;
32838;SDS011;19182;41.820;12.808;2022-10-04T18:56:21;14.57;;;4.07;;
32838;SDS011;19182;41.820;12.808;2022-10-04T19:04:48;14.27;;;3.80;;
32838;SDS011;19182;41.820;12.808;2022-10-04T19:22:00;10.10;;;3.42;;
32838;SDS011;19182;41.820;12.808;2022-10-04T19:27:21;10.40;;;3.75;;
32838;SDS011;19182;41.820;12.808;2022-10-04T19:52:09;4.35;;;2.75;;
32838;SDS011;19182;41.820;12.808;2022-10-04T19:59:03;5.47;;;3.17;;
32838;SDS011;19182;41.820;12.808;2022-10-04T20:01:12;8.40;;;2.90;;
32838;SDS011;19182;41.820;12.808;2022-10-04T20:03:40;6.65;;;2.55;;
32838;SDS011;19182;41.820;12.808;2022-10-04T20:06:07;6.28;;;2.70;;
32838;SDS011;19182;41.820;12.808;2022-10-04T20:08:47;9.32;;;3.28;;
32838;SDS011;19182;41.820;12.808;2022-10-04T20:11:45;5.88;;;2.80;;
32838;SDS011;19182;41.820;12.808;2022-10-04T20:17:01;4.93;;;2.70;;
32838;SDS011;19182;41.820;12.808;2022-10-04T20:21:54;11.07;;;3.00;;
32838;SDS011;19182;41.820;12.808;2022-10-04T20:35:03;5.18;;;2.25;;
32838;SDS011;19182;41.820;12.808;2022-10-04T20:45:53;3.80;;;2.15;;
32838;SDS011;19182;41.820;12.808;2022-10-04T20:50:48;7.15;;;2.25;;
32838;SDS011;19182;41.820;12.808;2022-10-04T20:53:23;3.40;;;2.20;;
32838;SDS011;19182;41.820;12.808;2022-10-04T20:55:51;7.20;;;2.38;;
32838;SDS011;19182;41.820;12.808;2022-10-04T20:58:37;6.07;;;2.20;;
32838;SDS011;19182;41.820;12.808;2022-10-04T21:01:15;6.32;;;1.90;;
32838;SDS011;19182;41.820;12.808;2022-10-04T21:06:57;5.85;;;2.22;;
32838;SDS011;19182;41.820;12.808;2022-10-04T21:09:30;6.82;;;2.17;;
32838;SDS011;19182;41.820;12.808;2022-10-04T21:11:58;6.07;;;2.03;;
32838;SDS011;19182;41.820;12.808;2022-10-04T21:14:28;6.95;;;2.20;;
32838;SDS011;19182;41.820;12.808;2022-10-04T21:17:32;7.22;;;1.98;;
32838;SDS011;19182;41.820;12.808;2022-10-04T21:19:56;4.07;;;1.77;;
32838;SDS011;19182;41.820;12.808;2022-10-04T21:25:02;14.20;;;2.50;;
32838;SDS011;19182;41.820;12.808;2022-10-04T21:27:51;7.57;;;2.20;;
32838;SDS011;19182;41.820;12.808;2022-10-04T21:30:18;6.22;;;2.53;;
32838;SDS011;19182;41.820;12.808;2022-10-04T21:32:44;4.28;;;2.10;;
32838;SDS011;19182;41.820;12.808;2022-10-04T21:35:10;5.60;;;2.55;;
32838;SDS011;19182;41.820;12.808;2022-10-04T21:37:37;4.00;;;1.95;;
32838;SDS011;19182;41.820;12.808;2022-10-04T21:40:03;4.05;;;2.15;;
32838;SDS011;19182;41.820;12.808;2022-10-04T21:42:30;5.85;;;2.20;;
32838;SDS011;19182;41.820;12.808;2022-10-04T21:44:56;7.03;;;1.98;;
32838;SDS011;19182;41.820;12.808;2022-10-04T21:47:21;12.32;;;2.83;;
32838;SDS011;19182;41.820;12.808;2022-10-04T21:49:53;3.88;;;1.80;;
32838;SDS011;19182;41.820;12.808;2022-10-04T21:52:19;2.40;;;1.73;;
32838;SDS011;19182;41.820;12.808;2022-10-04T21:54:45;4.70;;;1.90;;
32838;SDS011;19182;41.820;12.808;2022-10-04T21:57:11;7.70;;;1.67;;
32838;SDS011;19182;41.820;12.808;2022-10-04T21:59:37;8.60;;;2.20;;
32838;SDS011;19182;41.820;12.808;2022-10-04T22:02:03;5.72;;;1.90;;
32838;SDS011;19182;41.820;12.808;2022-10-04T22:04:31;2.55;;;1.80;;
32838;SDS011;19182;41.820;12.808;2022-10-04T22:06:57;4.70;;;2.40;;
32838;SDS011;19182;41.820;12.808;2022-10-04T22:09:22;6.10;;;2.80;;
32838;SDS011;19182;41.820;12.808;2022-10-04T22:11:48;3.65;;;2.10;;
32838;SDS011;19182;41.820;12.808;2022-10-04T22:14:15;5.90;;;2.30;;
32838;SDS011;19182;41.820;12.808;2022-10-04T22:16:41;4.55;;;1.77;;
32838;SDS011;19182;41.820;12.808;2022-10-04T22:19:07;6.60;;;1.95;;
32838;SDS011;19182;41.820;12.808;2022-10-04T22:21:33;4.88;;;1.77;;
32838;SDS011;19182;41.820;12.808;2022-10-04T22:23:59;7.07;;;1.92;;
32838;SDS011;19182;41.820;12.808;2022-10-04T22:26:28;3.30;;;1.60;;
32838;SDS011;19182;41.820;12.808;2022-10-04T22:28:54;6.25;;;1.70;;
32838;SDS011;19182;41.820;12.808;2022-10-04T22:31:26;5.75;;;1.65;;
32838;SDS011;19182;41.820;12.808;2022-10-04T22:33:53;1.75;;;1.40;;
32838;SDS011;19182;41.820;12.808;2022-10-04T22:36:20;4.80;;;1.38;;
32838;SDS011;19182;41.820;12.808;2022-10-04T22:39:08;4.78;;;1.80;;
32838;SDS011;19182;41.820;12.808;2022-10-04T22:41:39;4.30;;;1.42;;
32838;SDS011;19182;41.820;12.808;2022-10-04T22:44:29;5.65;;;1.92;;
32838;SDS011;19182;41.820;12.808;2022-10-04T22:47:00;6.32;;;1.65;;
32838;SDS011;19182;41.820;12.808;2022-10-04T22:49:30;4.90;;;1.70;;
32838;SDS011;19182;41.820;12.808;2022-10-04T22:52:00;10.32;;;2.00;;
32838;SDS011;19182;41.820;12.808;2022-10-04T22:55:02;2.72;;;1.50;;
32838;SDS011;19182;41.820;12.808;2022-10-04T22:57:30;4.03;;;1.70;;
32838;SDS011;19182;41.820;12.808;2022-10-04T22:59:56;5.68;;;1.52;;
32838;SDS011;19182;41.820;12.808;2022-10-04T23:02:22;3.55;;;1.63;;
32838;SDS011;19182;41.820;12.808;2022-10-04T23:04:55;4.22;;;1.52;;
32838;SDS011;19182;41.820;12.808;2022-10-04T23:07:25;4.55;;;1.67;;
32838;SDS011;19182;41.820;12.808;2022-10-04T23:10:01;2.92;;;1.75;;
32838;SDS011;19182;41.820;12.808;2022-10-04T23:12:26;1.52;;;1.20;;
32838;SDS011;19182;41.820;12.808;2022-10-04T23:14:52;3.92;;;1.35;;
32838;SDS011;19182;41.820;12.808;2022-10-04T23:17:28;6.78;;;1.40;;
32838;SDS011;19182;41.820;12.808;2022-10-04T23:19:57;3.30;;;1.33;;
32838;SDS011;19182;41.820;12.808;2022-10-04T23:22:39;7.18;;;1.55;;
32838;SDS011;19182;41.820;12.808;2022-10-04T23:25:19;13.20;;;1.88;;
32838;SDS011;19182;41.820;12.808;2022-10-04T23:27:50;3.85;;;1.35;;
32838;SDS011;19182;41.820;12.808;2022-10-04T23:30:20;4.18;;;1.60;;
32838;SDS011;19182;41.820;12.808;2022-10-04T23:32:50;3.13;;;1.40;;
32838;SDS011;19182;41.820;12.808;2022-10-04T23:35:24;7.53;;;2.08;;
32838;SDS011;19182;41.820;12.808;2022-10-04T23:37:54;5.07;;;1.58;;
32838;SDS011;19182;41.820;12.808;2022-10-04T23:40:21;4.88;;;1.90;;
32838;SDS011;19182;41.820;12.808;2022-10-04T23:42:50;5.03;;;2.10;;
32838;SDS011;19182;41.820;12.808;2022-10-04T23:45:24;4.43;;;1.77;;
32838;SDS011;19182;41.820;12.808;2022-10-04T23:47:52;2.17;;;1.60;;
32838;SDS011;19182;41.820;12.808;2022-10-04T23:52:53;7.55;;;2.78;;
32838;SDS011;19182;41.820;12.808;2022-10-04T23:55:25;4.72;;;1.85;;
32838;SDS011;19182;41.820;12.808;2022-10-04T23:57:52;4.60;;;2.20;;
